Time;durP1;ratioP1;P1;durP2;ratioP2;P2;SDS_P1;SDS_P2;PMS_P1;PMS_P2;Temp;Humidity;BMP_temperature;BMP_pressure;BME280_temperature;BME280_humidity;BME280_pressure;Samples;Min_cycle;Max_cycle;Signal;HPM_P1;HPM_P2
2023/02/12 00:00:50;;;;;;;19.60;9.20;;;;;;;2.45;100.00;100767.38;109381;1253;61462;-83
2023/02/12 00:03:39;;;;;;;23.60;9.30;;;;;;;2.42;100.00;100761.67;109392;1253;74024;-83
2023/02/12 00:06:29;;;;;;;24.10;9.50;;;;;;;2.45;100.00;100762.02;109363;1253;70040;-83
2023/02/12 00:09:18;;;;;;;18.90;9.40;;;;;;;2.46;100.00;100763.09;109392;1253;72071;-83
2023/02/12 00:12:07;;;;;;;18.70;9.70;;;;;;;2.46;100.00;100757.06;109220;1252;62344;-83
2023/02/12 00:14:56;;;;;;;18.60;9.90;;;;;;;2.53;100.00;100755.30;109341;1252;60914;-84
2023/02/12 00:17:45;;;;;;;20.60;9.80;;;;;;;2.49;100.00;100750.08;109325;1253;71377;-83
2023/02/12 00:20:37;;;;;;;18.70;9.00;;;;;;;2.49;100.00;100749.45;109388;1253;68505;-84
2023/02/12 00:23:27;;;;;;;18.80;9.40;;;;;;;2.43;100.00;100751.08;109374;1252;73840;-84
2023/02/12 00:26:17;;;;;;;23.40;10.10;;;;;;;2.40;100.00;100742.30;109392;1252;62401;-85
2023/02/12 00:29:09;;;;;;;20.70;9.90;;;;;;;2.40;100.00;100745.80;109308;1252;59290;-84
2023/02/12 00:31:58;;;;;;;22.20;10.60;;;;;;;2.36;100.00;100742.46;109283;1253;72428;-84
2023/02/12 00:34:47;;;;;;;19.60;10.00;;;;;;;2.32;100.00;100741.11;109365;1253;69172;-84
2023/02/12 00:37:36;;;;;;;23.00;11.60;;;;;;;2.30;100.00;100741.66;109243;1253;74042;-83
2023/02/12 00:40:25;;;;;;;23.30;11.20;;;;;;;2.31;100.00;100738.90;109372;1253;62356;-84
2023/02/12 00:43:14;;;;;;;21.90;11.60;;;;;;;2.35;100.00;100736.04;109323;1253;61229;-83
2023/02/12 00:46:04;;;;;;;21.50;10.20;;;;;;;2.37;100.00;100731.78;109311;1253;74893;-84
2023/02/12 00:48:54;;;;;;;24.60;12.20;;;;;;;2.38;100.00;100735.27;109387;1253;68574;-85
2023/02/12 00:51:43;;;;;;;21.90;10.70;;;;;;;2.41;100.00;100730.60;109285;1253;73220;-84
2023/02/12 00:54:32;;;;;;;18.80;10.50;;;;;;;2.41;100.00;100736.23;109378;1253;60827;-83
2023/02/12 00:57:21;;;;;;;21.20;10.30;;;;;;;2.39;100.00;100731.32;109388;1252;61172;-85
2023/02/12 01:00:21;;;;;;;24.00;10.50;;;;;;;2.47;100.00;100729.52;109447;1253;75639;-84
2023/02/12 01:03:10;;;;;;;23.00;10.50;;;;;;;2.48;100.00;100728.76;109294;1252;68701;-84
2023/02/12 01:05:59;;;;;;;19.00;9.00;;;;;;;2.53;100.00;100726.39;109267;1251;70770;-84
2023/02/12 01:08:50;;;;;;;21.60;10.40;;;;;;;2.56;100.00;100737.61;109426;1251;58606;-84
2023/02/12 01:11:39;;;;;;;20.50;9.80;;;;;;;2.54;100.00;100735.14;109425;1251;59223;-84
2023/02/12 01:14:30;;;;;;;24.60;10.20;;;;;;;2.59;100.00;100734.44;109381;1251;75061;-83
2023/02/12 01:17:19;;;;;;;21.00;9.40;;;;;;;2.66;100.00;100732.77;109352;1253;69506;-84
2023/02/12 01:20:12;;;;;;;24.80;10.70;;;;;;;2.68;100.00;100729.72;109409;1253;73626;-84
2023/02/12 01:23:01;;;;;;;21.30;10.70;;;;;;;2.67;100.00;100726.62;109383;1252;59654;-86
2023/02/12 01:25:49;;;;;;;19.10;10.40;;;;;;;2.74;100.00;100725.69;109391;1251;61184;-88
2023/02/12 01:28:39;;;;;;;22.50;10.70;;;;;;;2.76;100.00;100728.23;109436;1251;75208;-87
2023/02/12 01:31:31;;;;;;;25.10;11.00;;;;;;;2.76;100.00;100731.32;109378;1251;69704;-89
2023/02/12 01:34:20;;;;;;;21.50;9.60;;;;;;;2.70;100.00;100728.59;109320;1252;72065;-88
2023/02/12 01:37:09;;;;;;;20.60;11.20;;;;;;;2.67;100.00;100724.67;109422;1252;60033;-88
2023/02/12 01:39:57;;;;;;;24.30;10.90;;;;;;;2.64;100.00;100726.69;109379;1253;58334;-89
2023/02/12 01:42:46;;;;;;;25.20;10.80;;;;;;;2.72;100.00;100727.02;109405;1253;74234;-87
2023/02/12 01:45:36;;;;;;;19.60;10.20;;;;;;;2.75;100.00;100727.05;109380;1252;69096;-87
2023/02/12 01:48:26;;;;;;;20.40;10.70;;;;;;;2.73;100.00;100729.35;109342;1253;73576;-87
2023/02/12 01:51:16;;;;;;;22.60;10.60;;;;;;;2.73;100.00;100732.84;109303;1252;58481;-87
2023/02/12 01:54:06;;;;;;;24.40;10.80;;;;;;;2.75;100.00;100738.30;109348;1254;61377;-88
2023/02/12 01:56:55;;;;;;;22.70;11.50;;;;;;;2.73;100.00;100735.49;109234;1253;72984;-86
2023/02/12 01:59:44;;;;;;;21.30;10.20;;;;;;;2.71;100.00;100742.23;109404;1251;67851;-87
2023/02/12 02:02:33;;;;;;;22.10;10.60;;;;;;;2.76;100.00;100745.81;109414;1251;70447;-89
2023/02/12 02:05:53;;;;;;;22.50;10.60;;;;;;;2.76;100.00;100746.98;109417;1251;58434;-87
2023/02/12 02:08:43;;;;;;;21.30;10.30;;;;;;;2.82;100.00;100754.69;109238;1252;59079;-88
2023/02/12 02:14:39;;;;;;;22.00;10.90;;;;;;;2.87;100.00;100763.90;109341;1254;69718;-87
2023/02/12 02:17:58;;;;;;;23.10;10.60;;;;;;;2.90;100.00;100763.80;109371;1251;72650;-86
2023/02/12 02:21:09;;;;;;;23.80;11.20;;;;;;;2.95;100.00;100763.63;109141;1254;58914;-87
2023/02/12 02:24:09;;;;;;;23.50;10.40;;;;;;;2.93;100.00;100772.20;109178;1254;61089;-87
2023/02/12 02:27:42;;;;;;;20.10;9.80;;;;;;;2.95;100.00;100776.49;109412;1251;71994;-88
2023/02/12 02:30:58;;;;;;;22.00;10.90;;;;;;;3.01;100.00;100784.71;109418;1251;67586;-88
2023/02/12 02:33:53;;;;;;;20.70;9.90;;;;;;;3.00;100.00;100783.60;109371;1251;73774;-87
2023/02/12 02:36:46;;;;;;;18.20;9.40;;;;;;;2.99;100.00;100789.41;109363;1252;60174;-87
2023/02/12 02:39:53;;;;;;;19.10;8.70;;;;;;;2.93;100.00;100791.01;109328;1254;58517;-90
2023/02/12 02:42:56;;;;;;;21.00;10.40;;;;;;;2.82;100.00;100801.69;109368;1253;74663;-90
2023/02/12 02:45:47;;;;;;;20.50;10.50;;;;;;;2.82;100.00;100808.62;109392;1254;69976;-89
2023/02/12 02:48:38;;;;;;;22.60;10.50;;;;;;;2.81;100.00;100809.17;109373;1253;70620;-90
2023/02/12 02:51:40;;;;;;;25.30;11.30;;;;;;;2.90;100.00;100815.78;109364;1253;62529;-84
2023/02/12 02:54:40;;;;;;;18.50;10.00;;;;;;;2.90;100.00;100821.88;109159;1251;59585;-84
2023/02/12 02:57:41;;;;;;;20.70;9.10;;;;;;;2.92;100.00;100830.91;109319;1253;74504;-84
2023/02/12 03:00:34;;;;;;;16.80;9.00;;;;;;;2.97;100.00;100836.58;109073;1253;68618;-84
2023/02/12 03:03:32;;;;;;;17.60;9.00;;;;;;;3.03;100.00;100838.19;109144;1252;73333;-84
2023/02/12 03:06:37;;;;;;;19.60;8.70;;;;;;;3.07;100.00;100841.81;109221;1252;60220;-85
2023/02/12 03:09:31;;;;;;;25.20;11.80;;;;;;;3.07;100.00;100848.30;109330;1252;61138;-84
2023/02/12 03:12:31;;;;;;;17.90;9.20;;;;;;;3.03;100.00;100857.46;109397;1252;73941;-84
2023/02/12 03:15:26;;;;;;;18.10;8.40;;;;;;;3.02;100.00;100864.16;109387;1251;69280;-84
2023/02/12 03:18:24;;;;;;;17.20;8.60;;;;;;;2.99;100.00;100867.76;109372;1251;71700;-84
2023/02/12 03:21:15;;;;;;;17.50;8.10;;;;;;;3.00;100.00;100875.30;109429;1251;62064;-83
2023/02/12 03:24:31;;;;;;;11.30;6.50;;;;;;;3.00;100.00;100879.83;109355;1251;61547;-84
2023/02/12 03:27:25;;;;;;;13.20;7.10;;;;;;;2.99;100.00;100891.34;109423;1251;74534;-84
2023/02/12 03:30:14;;;;;;;12.30;6.70;;;;;;;3.00;100.00;100890.46;109442;1250;69942;-84
2023/02/12 03:33:20;;;;;;;9.40;5.50;;;;;;;3.03;100.00;100896.14;109410;1251;72622;-83
2023/02/12 03:36:34;;;;;;;11.80;5.90;;;;;;;3.08;100.00;100902.76;109443;1251;59920;-83
2023/02/12 03:40:04;;;;;;;10.10;5.20;;;;;;;3.17;100.00;100900.90;109152;1252;59737;-84
2023/02/12 03:43:08;;;;;;;11.10;5.90;;;;;;;3.13;100.00;100906.65;109349;1252;72835;-85
2023/02/12 03:46:13;;;;;;;8.40;4.80;;;;;;;3.11;100.00;100909.84;109395;1254;68169;-85
2023/02/12 03:49:16;;;;;;;8.20;4.90;;;;;;;3.06;100.00;100917.16;109360;1254;72275;-85
2023/02/12 03:52:05;;;;;;;9.50;4.90;;;;;;;3.09;100.00;100935.19;109159;1253;60911;-85
2023/02/12 03:54:58;;;;;;;8.50;4.90;;;;;;;3.16;100.00;100938.09;109352;1253;60509;-84
2023/02/12 03:57:50;;;;;;;9.80;4.70;;;;;;;3.12;100.00;100948.63;109395;1256;74578;-85
2023/02/12 04:00:39;;;;;;;8.80;5.00;;;;;;;3.07;100.00;100958.73;109200;1253;69814;-85
2023/02/12 04:03:29;;;;;;;9.50;4.80;;;;;;;3.10;100.00;100960.45;109171;1253;72698;-86
2023/02/12 04:06:25;;;;;;;9.60;4.90;;;;;;;3.11;100.00;100960.14;109265;1252;59263;-85
2023/02/12 04:09:14;;;;;;;8.70;4.30;;;;;;;3.11;100.00;100968.78;109431;1251;59066;-85
2023/02/12 04:12:18;;;;;;;6.70;4.00;;;;;;;3.14;100.00;100974.26;109255;1253;72214;-84
2023/02/12 04:15:11;;;;;;;7.60;4.00;;;;;;;3.21;100.00;100982.39;109392;1252;68452;-84
2023/02/12 04:18:08;;;;;;;;;;;;;;;3.25;100.00;100995.81;109418;1252;71370;-85
2023/02/12 04:21:30;;;;;;;5.50;4.00;;;;;;;3.17;100.00;101015.70;109291;1251;61174;-85
2023/02/12 04:24:35;;;;;;;3.70;2.40;;;;;;;3.01;100.00;101016.77;109381;1254;60581;-85
2023/02/12 04:28:18;;;;;;;5.80;3.10;;;;;;;2.98;100.00;101028.09;109188;1251;74577;-84
2023/02/12 04:31:15;;;;;;;3.30;2.50;;;;;;;2.85;100.00;101035.54;108849;1259;68593;-84
2023/02/12 04:34:47;;;;;;;2.40;1.90;;;;;;;2.78;100.00;101051.02;108875;1258;72024;-85
2023/02/12 04:37:43;;;;;;;3.80;1.90;;;;;;;2.61;100.00;101064.77;109358;1251;62129;-86
2023/02/12 04:40:31;;;;;;;2.50;1.70;;;;;;;2.57;100.00;101067.47;109348;1251;60684;-84
2023/02/12 04:43:28;;;;;;;2.70;1.30;;;;;;;2.44;100.00;101068.38;109389;1251;73600;-84
2023/02/12 04:46:16;;;;;;;3.40;1.60;;;;;;;2.36;100.00;101086.02;109437;1250;69589;-84
2023/02/12 04:49:05;;;;;;;4.40;1.60;;;;;;;2.30;100.00;101089.81;109406;1251;72172;-85
2023/02/12 04:51:54;;;;;;;1.80;1.30;;;;;;;2.25;100.00;101109.64;109397;1251;60393;-85
2023/02/12 04:54:43;;;;;;;2.70;1.20;;;;;;;2.23;100.00;101115.80;109405;1251;61214;-85
2023/02/12 04:57:32;;;;;;;2.70;1.40;;;;;;;2.26;100.00;101124.57;109399;1251;74268;-84
2023/02/12 05:00:21;;;;;;;1.80;1.30;;;;;;;2.23;100.00;101137.36;109377;1252;69319;-84
2023/02/12 05:03:11;;;;;;;5.90;2.90;;;;;;;2.23;100.00;101143.58;109371;1252;73869;-84
2023/02/12 05:06:07;;;;;;;1.80;1.10;;;;;;;2.23;100.00;101155.08;109360;1254;60285;-84
2023/02/12 05:08:56;;;;;;;1.60;1.00;;;;;;;2.25;100.00;101166.80;109391;1251;59698;-84
2023/02/12 05:11:44;;;;;;;2.10;1.10;;;;;;;2.24;100.00;101173.23;109438;1251;75050;-84
2023/02/12 05:14:34;;;;;;;2.00;1.10;;;;;;;2.21;100.00;101184.48;109449;1251;66682;-84
2023/02/12 05:17:23;;;;;;;1.70;0.70;;;;;;;2.20;100.00;101195.69;109291;1252;73299;-84
2023/02/12 05:20:13;;;;;;;2.20;0.90;;;;;;;2.17;100.00;101202.80;109391;1253;60442;-84
2023/02/12 05:23:02;;;;;;;1.60;0.70;;;;;;;2.13;100.00;101214.80;109398;1252;61137;-83
2023/02/12 05:25:51;;;;;;;1.60;0.70;;;;;;;2.05;100.00;101227.64;109398;1254;74698;-84
2023/02/12 05:28:40;;;;;;;2.40;0.90;;;;;;;1.99;100.00;101239.13;109407;1251;69631;-83
2023/02/12 05:31:28;;;;;;;1.70;0.80;;;;;;;1.96;100.00;101240.23;109415;1251;72568;-85
2023/02/12 05:34:19;;;;;;;3.50;1.00;;;;;;;1.95;100.00;101244.45;109367;1251;58753;-85
2023/02/12 05:37:08;;;;;;;3.30;1.90;;;;;;;1.86;100.00;101252.02;109434;1251;60530;-85
2023/02/12 05:39:56;;;;;;;1.40;0.80;;;;;;;1.84;100.00;101255.48;109456;1251;74562;-84
2023/02/12 05:42:45;;;;;;;3.00;1.10;;;;;;;1.83;100.00;101264.23;109391;1251;68406;-84
2023/02/12 05:45:36;;;;;;;1.40;0.80;;;;;;;1.79;100.00;101267.92;109399;1251;71243;-84
2023/02/12 05:48:25;;;;;;;2.40;0.80;;;;;;;1.80;100.00;101277.66;109382;1254;60232;-84
2023/02/12 05:51:20;;;;;;;1.80;1.30;;;;;;;1.78;100.00;101285.61;109418;1251;60985;-84
2023/02/12 05:54:09;;;;;;;3.90;1.10;;;;;;;1.73;100.00;101293.84;109289;1253;71724;-85
2023/02/12 05:56:58;;;;;;;3.80;1.30;;;;;;;1.61;100.00;101309.48;109416;1250;68993;-84
2023/02/12 05:59:47;;;;;;;2.40;0.90;;;;;;;1.70;100.00;101315.77;109429;1251;73981;-83
2023/02/12 06:02:36;;;;;;;1.60;0.70;;;;;;;1.64;100.00;101312.61;109454;1251;58201;-84
2023/02/12 06:05:25;;;;;;;2.00;0.60;;;;;;;1.57;100.00;101317.39;109394;1255;60502;-84
2023/02/12 06:08:14;;;;;;;0.40;0.40;;;;;;;1.54;100.00;101323.34;109382;1252;73878;-84
2023/02/12 06:11:07;;;;;;;6.40;1.90;;;;;;;1.60;100.00;101319.89;109252;1252;68998;-84
2023/02/12 06:13:56;;;;;;;4.70;1.40;;;;;;;1.57;100.00;101322.61;109402;1252;73987;-84
2023/02/12 06:16:51;;;;;;;1.20;0.70;;;;;;;1.50;100.00;101322.86;109414;1253;62392;-84
2023/02/12 06:19:41;;;;;;;3.80;0.90;;;;;;;1.47;100.00;101332.63;109425;1252;59531;-84
2023/02/12 06:22:29;;;;;;;3.90;1.30;;;;;;;1.49;100.00;101345.97;109293;1252;75371;-85
2023/02/12 06:25:20;;;;;;;2.20;1.20;;;;;;;1.50;100.00;101353.86;109340;1256;67402;-84
2023/02/12 06:28:09;;;;;;;4.00;0.90;;;;;;;1.51;100.00;101363.02;109354;1254;70796;-85
2023/02/12 06:30:58;;;;;;;2.50;1.10;;;;;;;1.44;100.00;101371.27;109263;1253;58512;-84
2023/02/12 06:33:47;;;;;;;3.40;0.80;;;;;;;1.38;100.00;101379.09;109286;1253;59375;-84
2023/02/12 06:36:37;;;;;;;1.20;0.60;;;;;;;1.28;100.00;101381.58;109397;1252;74753;-84
2023/02/12 06:39:26;;;;;;;2.40;0.60;;;;;;;1.23;100.00;101400.69;109403;1253;67401;-85
2023/02/12 06:42:14;;;;;;;1.90;0.80;;;;;;;1.12;100.00;101405.67;109377;1254;73794;-84
2023/02/12 06:45:03;;;;;;;1.50;0.70;;;;;;;1.12;100.00;101408.38;109339;1252;59430;-84
2023/02/12 06:47:53;;;;;;;2.00;0.90;;;;;;;1.19;100.00;101419.13;109254;1256;59783;-84
2023/02/12 06:50:42;;;;;;;0.80;0.50;;;;;;;1.31;100.00;101415.00;109406;1254;72751;-84
2023/02/12 06:53:32;;;;;;;2.10;0.80;;;;;;;1.53;100.00;101421.35;109374;1254;69750;-84
2023/02/12 06:56:22;;;;;;;2.00;0.70;;;;;;;1.70;100.00;101421.63;109354;1254;73855;-84
2023/02/12 06:59:15;;;;;;;0.60;0.60;;;;;;;1.74;100.00;101423.36;109374;1252;59403;-84
2023/02/12 07:02:03;;;;;;;1.30;1.00;;;;;;;1.77;100.00;101429.39;109364;1254;59354;-84
2023/02/12 07:04:52;;;;;;;1.50;0.80;;;;;;;1.79;100.00;101428.33;109403;1254;74589;-84
2023/02/12 07:07:43;;;;;;;2.70;0.90;;;;;;;1.80;100.00;101436.30;109390;1256;69729;-84
2023/02/12 07:10:32;;;;;;;4.10;1.60;;;;;;;1.85;100.00;101430.67;109372;1254;73848;-84
2023/02/12 07:13:20;;;;;;;3.80;0.80;;;;;;;1.85;100.00;101436.04;109353;1253;60011;-84
2023/02/12 07:16:13;;;;;;;2.80;1.30;;;;;;;1.83;100.00;101450.08;109371;1254;60335;-84
2023/02/12 07:19:04;;;;;;;2.30;1.00;;;;;;;1.80;100.00;101452.70;109280;1253;75309;-84
2023/02/12 07:21:53;;;;;;;4.40;1.60;;;;;;;1.79;100.00;101466.64;109355;1252;68113;-84
2023/02/12 07:24:42;;;;;;;2.60;1.20;;;;;;;1.86;100.00;101469.17;109340;1254;73280;-83
2023/02/12 07:27:36;;;;;;;2.60;0.70;;;;;;;1.85;100.00;101469.37;109396;1253;58353;-84
2023/02/12 07:30:24;;;;;;;2.30;0.80;;;;;;;1.75;100.00;101476.52;109368;1254;61250;-85
2023/02/12 07:33:13;;;;;;;1.90;0.90;;;;;;;1.74;100.00;101487.12;109358;1253;74832;-84
2023/02/12 07:36:03;;;;;;;4.30;1.50;;;;;;;1.66;100.00;101483.42;109380;1256;69227;-83
2023/02/12 07:38:53;;;;;;;1.50;0.80;;;;;;;1.70;100.00;101486.51;109332;1254;73730;-83
2023/02/12 07:41:42;;;;;;;0.90;0.60;;;;;;;1.67;100.00;101501.38;109333;1252;58404;-84
2023/02/12 07:44:33;;;;;;;2.70;0.90;;;;;;;1.61;100.00;101511.18;109408;1255;59825;-84
2023/02/12 07:47:21;;;;;;;4.40;1.70;;;;;;;1.61;100.00;101519.23;109397;1254;73041;-84
2023/02/12 07:50:10;;;;;;;2.40;1.60;;;;;;;1.62;100.00;101508.33;109395;1253;69631;-83
2023/02/12 07:53:00;;;;;;;5.40;1.10;;;;;;;1.67;100.00;101522.14;109211;1254;70091;-84
2023/02/12 07:55:49;;;;;;;0.90;0.50;;;;;;;1.81;100.00;101528.48;108983;1253;58516;-85
2023/02/12 07:58:39;;;;;;;0.80;0.70;;;;;;;1.87;100.00;101527.03;109036;1254;61690;-85
2023/02/12 08:01:37;;;;;;;2.10;1.20;;;;;;;1.80;100.00;101532.18;109295;1253;72726;-85
2023/02/12 08:04:26;;;;;;;0.80;0.60;;;;;;;1.83;100.00;101544.73;109083;1259;69835;-84
2023/02/12 08:07:16;;;;;;;3.30;1.60;;;;;;;1.94;100.00;101540.35;109169;1256;71698;-84
2023/02/12 08:10:08;;;;;;;1.80;1.20;;;;;;;2.06;100.00;101546.55;109267;1253;60832;-84
2023/02/12 08:13:00;;;;;;;2.40;1.20;;;;;;;2.16;100.00;101544.08;109029;1254;59136;-84
2023/02/12 08:16:00;;;;;;;2.50;1.30;;;;;;;2.22;100.00;101551.46;109341;1252;75050;-85
2023/02/12 08:18:50;;;;;;;2.20;0.90;;;;;;;2.22;100.00;101553.04;109148;1254;66630;-84
2023/02/12 08:21:39;;;;;;;2.00;1.30;;;;;;;2.25;100.00;101562.23;109181;1254;200999;-85
2023/02/12 08:24:28;;;;;;;1.40;0.80;;;;;;;2.26;100.00;101567.67;109316;1254;60549;-85
2023/02/12 08:27:19;;;;;;;2.10;1.00;;;;;;;2.24;100.00;101569.73;109102;1254;59137;-85
2023/02/12 08:30:09;;;;;;;5.00;2.30;;;;;;;2.22;100.00;101578.23;109202;1254;73889;-85
2023/02/12 08:32:58;;;;;;;6.40;1.70;;;;;;;2.34;100.00;101581.12;109032;1255;69170;-85
2023/02/12 08:35:50;;;;;;;5.60;1.30;;;;;;;2.42;100.00;101582.96;109294;1253;72404;-85
2023/02/12 08:38:40;;;;;;;1.10;0.80;;;;;;;2.42;100.00;101587.08;109237;1254;60088;-85
2023/02/12 08:41:29;;;;;;;1.10;0.80;;;;;;;2.33;100.00;101590.80;108983;1259;59442;-84
2023/02/12 08:44:18;;;;;;;2.80;1.00;;;;;;;2.30;97.38;101600.73;109296;1254;74237;-85
2023/02/12 08:47:08;;;;;;;1.50;0.80;;;;;;;2.18;98.78;101608.23;109263;1253;66462;-84
2023/02/12 08:49:57;;;;;;;1.70;1.10;;;;;;;2.17;99.81;101612.26;109273;1256;73693;-85
2023/02/12 08:52:46;;;;;;;2.70;1.20;;;;;;;2.22;97.32;101619.55;109242;1253;60870;-84
2023/02/12 08:55:37;;;;;;;1.90;1.40;;;;;;;2.18;97.81;101624.87;109068;1259;60359;-85
2023/02/12 08:58:29;;;;;;;1.20;1.00;;;;;;;2.20;100.00;101631.15;109306;1254;73864;-84
2023/02/12 09:01:21;;;;;;;1.90;1.10;;;;;;;2.29;100.00;101635.20;109029;1253;68182;-84
2023/02/12 09:04:21;;;;;;;1.30;1.00;;;;;;;2.32;100.00;101630.26;109110;1254;71816;-84
2023/02/12 09:07:11;;;;;;;3.80;0.80;;;;;;;2.35;100.00;101635.64;109291;1252;60110;-85
2023/02/12 09:10:04;;;;;;;1.90;0.80;;;;;;;2.45;100.00;101636.77;109003;1254;63202;-85
2023/02/12 09:12:52;;;;;;;1.80;0.90;;;;;;;2.50;96.32;101644.38;109309;1252;75045;-84
2023/02/12 09:15:42;;;;;;;1.70;1.10;;;;;;;2.53;94.21;101655.27;109273;1253;69762;-84
2023/02/12 09:18:35;;;;;;;2.90;1.40;;;;;;;2.60;93.84;101659.12;109141;1253;74212;-85
2023/02/12 09:21:24;;;;;;;1.40;0.90;;;;;;;2.57;87.69;101661.56;109054;1258;59369;-84
2023/02/12 09:24:13;;;;;;;1.40;0.90;;;;;;;2.45;89.98;101662.94;109043;1256;59506;-85
2023/02/12 09:27:05;;;;;;;2.90;1.30;;;;;;;2.38;90.24;101672.54;109141;1256;74507;-84
2023/02/12 09:29:54;;;;;;;2.30;1.40;;;;;;;2.30;91.23;101678.20;109093;1254;69502;-85
2023/02/12 09:32:43;;;;;;;2.00;0.90;;;;;;;2.37;90.21;101684.36;109246;1254;72910;-85
2023/02/12 09:35:34;;;;;;;2.90;1.20;;;;;;;2.42;86.77;101680.27;109083;1255;58812;-85
2023/02/12 09:38:23;;;;;;;2.70;1.20;;;;;;;2.43;87.93;101684.66;109049;1254;60912;-85
2023/02/12 09:41:21;;;;;;;3.50;0.70;;;;;;;2.39;89.86;101679.73;109046;1254;74817;-84
2023/02/12 09:44:24;;;;;;;2.50;1.90;;;;;;;2.44;95.92;101668.56;109277;1254;69610;-84
2023/02/12 09:47:33;;;;;;;1.90;1.10;;;;;;;2.62;87.90;101661.61;109100;1258;73792;-85
2023/02/12 09:50:32;;;;;;;2.00;0.80;;;;;;;2.62;84.83;101656.16;109143;1253;58601;-85
2023/02/12 09:53:24;;;;;;;1.90;1.10;;;;;;;2.53;88.99;101652.94;109122;1259;59285;-85
2023/02/12 09:56:17;;;;;;;2.20;1.10;;;;;;;2.58;93.43;101655.05;109247;1254;74098;-85
2023/02/12 09:59:07;;;;;;;3.10;0.80;;;;;;;2.71;93.75;101655.60;109141;1254;70348;-85
2023/02/12 10:01:57;;;;;;;1.90;0.80;;;;;;;2.77;94.46;101663.70;109198;1254;72703;-85
2023/02/12 10:04:49;;;;;;;1.10;0.80;;;;;;;2.84;95.67;101658.17;109276;1254;58183;-85
2023/02/12 10:08:13;;;;;;;3.30;1.10;;;;;;;2.96;97.87;101663.93;109176;1254;61366;-84
2023/02/12 10:11:40;;;;;;;2.40;0.90;;;;;;;3.06;90.38;101664.35;109243;1254;74974;-85
2023/02/12 10:15:00;;;;;;;4.80;1.70;;;;;;;3.15;90.89;101667.27;109166;1257;69339;-84
2023/02/12 10:18:13;;;;;;;2.10;1.00;;;;;;;3.16;84.60;101663.36;109267;1254;73764;-84
2023/02/12 10:21:11;;;;;;;1.30;0.80;;;;;;;3.12;81.17;101664.69;109078;1254;60575;-84
2023/02/12 10:24:08;;;;;;;1.30;0.70;;;;;;;3.13;83.39;101668.83;109143;1257;61605;-85
2023/02/12 10:27:02;;;;;;;1.40;0.70;;;;;;;3.21;85.93;101673.87;109132;1254;74264;-84
2023/02/12 10:29:51;;;;;;;1.60;0.90;;;;;;;3.34;86.59;101670.22;109041;1253;68698;-85
2023/02/12 10:32:40;;;;;;;2.30;1.10;;;;;;;3.42;86.06;101668.95;108954;1254;73635;-84
2023/02/12 10:35:29;;;;;;;2.20;1.20;;;;;;;3.54;85.23;101669.89;109099;1254;60466;-84
2023/02/12 10:38:21;;;;;;;1.70;0.80;;;;;;;3.66;82.26;101667.83;109035;1254;58617;-85
2023/02/12 10:41:10;;;;;;;1.30;1.00;;;;;;;3.81;81.65;101667.23;109170;1254;74031;-86
2023/02/12 10:44:01;;;;;;;3.60;1.50;;;;;;;3.97;77.88;101667.32;109090;1254;70130;-84
2023/02/12 10:46:56;;;;;;;6.10;1.20;;;;;;;3.98;76.50;101665.03;109129;1255;73712;-85
2023/02/12 10:49:51;;;;;;;2.10;0.80;;;;;;;4.03;74.14;101666.28;109088;1254;61256;-84
2023/02/12 10:52:44;;;;;;;3.80;1.40;;;;;;;4.11;71.53;101668.99;109034;1254;60081;-85
2023/02/12 10:55:35;;;;;;;2.20;1.00;;;;;;;4.18;69.27;101670.13;109280;1254;74555;-85
2023/02/12 10:58:24;;;;;;;3.30;1.80;;;;;;;4.27;69.82;101668.02;109270;1254;70386;-85
2023/02/12 11:01:19;;;;;;;4.30;1.20;;;;;;;4.28;69.28;101666.89;109108;1254;72140;-85
2023/02/12 11:04:31;;;;;;;3.50;1.70;;;;;;;4.35;73.43;101661.02;109295;1253;59521;-84
2023/02/12 11:07:21;;;;;;;3.50;0.90;;;;;;;4.40;73.85;101666.89;108919;1254;60549;-84
2023/02/12 11:10:19;;;;;;;1.60;0.70;;;;;;;4.43;73.73;101666.60;109095;1254;74962;-85
2023/02/12 11:13:28;;;;;;;2.90;1.10;;;;;;;4.39;68.93;101672.14;109117;1254;69507;-85
2023/02/12 11:16:29;;;;;;;2.60;1.20;;;;;;;4.39;67.38;101668.64;109160;1254;72498;-84
2023/02/12 11:19:23;;;;;;;3.30;1.30;;;;;;;4.33;68.80;101674.51;109081;1253;60482;-85
2023/02/12 11:22:18;;;;;;;4.20;1.70;;;;;;;4.33;70.14;101675.17;109058;1253;58984;-85
2023/02/12 11:25:14;;;;;;;3.80;1.50;;;;;;;4.46;74.33;101681.88;109147;1253;73639;-84
2023/02/12 11:28:17;;;;;;;1.30;0.90;;;;;;;4.65;75.73;101676.41;109086;1254;69990;-84
2023/02/12 11:31:13;;;;;;;2.10;0.90;;;;;;;4.70;70.74;101680.90;109181;1254;73432;-83
2023/02/12 11:34:11;;;;;;;2.80;1.00;;;;;;;4.62;70.70;101680.73;109193;1253;60351;-85
2023/02/12 11:37:02;;;;;;;2.60;1.20;;;;;;;4.55;67.65;101689.16;109207;1256;60328;-84
2023/02/12 11:39:51;;;;;;;2.80;1.00;;;;;;;4.47;67.21;101685.83;109095;1257;73068;-84
2023/02/12 11:42:42;;;;;;;2.90;1.10;;;;;;;4.41;65.05;101688.34;109199;1254;68936;-85
2023/02/12 11:45:51;;;;;;;0.90;0.50;;;;;;;4.39;63.74;101687.38;109056;1253;71391;-83
2023/02/12 11:48:40;;;;;;;1.90;1.20;;;;;;;4.33;64.90;101689.50;109128;1253;60369;-83
2023/02/12 11:51:31;;;;;;;0.70;0.60;;;;;;;4.26;63.26;101686.45;109037;1253;59945;-84
2023/02/12 11:54:25;;;;;;;1.50;1.00;;;;;;;4.29;64.41;101677.17;109181;1253;75063;-84
2023/02/12 11:57:35;;;;;;;1.70;0.70;;;;;;;4.28;65.01;101685.05;109237;1254;69371;-84
2023/02/12 12:01:05;;;;;;;3.20;0.90;;;;;;;4.27;63.59;101678.71;109125;1253;71709;-84
2023/02/12 12:03:58;;;;;;;0.70;0.60;;;;;;;4.13;67.28;101678.95;109064;1253;58982;-83
2023/02/12 12:06:57;;;;;;;2.00;1.10;;;;;;;4.16;67.99;101689.06;109106;1252;60408;-84
2023/02/12 12:10:00;;;;;;;2.30;1.00;;;;;;;4.11;63.49;101684.89;109238;1251;71752;-84
2023/02/12 12:12:56;;;;;;;1.00;0.60;;;;;;;4.01;63.66;101684.92;109262;1254;70824;-84
2023/02/12 12:22:17;;;;;;;1.50;0.90;;;;;;;3.86;65.46;101680.38;109184;1251;59760;-85
2023/02/12 12:25:19;;;;;;;6.60;1.20;;;;;;;3.89;66.53;101680.91;109315;1253;75147;-85
2023/02/12 12:28:22;;;;;;;1.10;0.80;;;;;;;3.94;66.53;101687.58;109189;1253;68742;-84
2023/02/12 12:31:11;;;;;;;2.20;1.20;;;;;;;3.92;64.64;101683.08;109181;1254;71355;-85
2023/02/12 12:34:09;;;;;;;2.00;1.10;;;;;;;3.81;66.53;101691.75;109310;1253;59340;-84
2023/02/12 12:37:11;;;;;;;2.90;1.20;;;;;;;3.83;65.71;101693.58;109244;1252;60930;-84
2023/02/12 12:40:19;;;;;;;1.90;1.00;;;;;;;3.82;64.62;101694.46;109204;1252;74070;-85
2023/02/12 12:43:18;;;;;;;2.00;0.80;;;;;;;3.72;63.21;101700.02;109209;1254;68564;-84
2023/02/12 12:46:36;;;;;;;2.50;1.10;;;;;;;3.75;61.77;101699.15;109272;1251;73289;-84
2023/02/12 12:49:44;;;;;;;3.00;1.00;;;;;;;3.77;63.29;101703.39;108994;1254;60643;-85
2023/02/12 12:53:00;;;;;;;1.90;0.80;;;;;;;3.74;62.11;101704.03;109165;1253;61393;-84
2023/02/12 12:56:07;;;;;;;2.10;0.90;;;;;;;3.76;63.81;101698.55;109261;1251;74864;-84
2023/02/12 12:59:34;;;;;;;1.60;0.70;;;;;;;3.76;63.46;101698.10;109358;1253;70187;-84
2023/02/12 13:02:56;;;;;;;3.20;0.90;;;;;;;3.69;62.92;101702.31;109184;1253;71706;-84
2023/02/12 13:05:56;;;;;;;1.70;0.70;;;;;;;3.63;62.30;101696.10;109349;1254;59797;-84
2023/02/12 13:09:11;;;;;;;1.70;0.60;;;;;;;3.50;62.67;101698.01;109201;1253;60617;-85
2023/02/12 13:12:06;;;;;;;1.30;0.90;;;;;;;3.52;62.73;101700.30;109153;1253;74653;-84
2023/02/12 13:14:59;;;;;;;1.00;0.50;;;;;;;3.53;61.95;101696.73;109291;1253;69748;-84
2023/02/12 13:18:12;;;;;;;1.90;1.10;;;;;;;3.46;63.03;101705.86;109184;1253;72374;-84
2023/02/12 13:21:12;;;;;;;0.70;0.50;;;;;;;3.44;63.01;101707.06;109246;1253;59864;-85
2023/02/12 13:24:06;;;;;;;;;;;;;;;3.28;63.59;101704.86;109113;1254;59697;-84
2023/02/12 13:26:57;;;;;;;2.00;0.40;;;;;;;3.26;64.20;101708.75;109310;1253;71873;-85
2023/02/12 13:30:21;;;;;;;2.20;0.60;;;;;;;3.29;63.73;101707.24;109294;1253;68305;-84
2023/02/12 13:33:13;;;;;;;2.00;0.90;;;;;;;3.24;64.79;101706.27;109088;1253;73927;-84